sensor_id;sensor_type;location;lat;lon;timestamp;temperature;humidity
15131;DHT22;7666;50.920;4.628;2023-12-04T00:01:17;2.70;99.90
15131;DHT22;7666;50.920;4.628;2023-12-04T00:04:03;2.70;99.90
15131;DHT22;7666;50.920;4.628;2023-12-04T00:06:49;2.70;99.90
15131;DHT22;7666;50.920;4.628;2023-12-04T00:09:35;2.60;99.90
15131;DHT22;7666;50.920;4.628;2023-12-04T00:12:21;2.80;99.90
15131;DHT22;7666;50.920;4.628;2023-12-04T00:15:07;2.80;99.90
15131;DHT22;7666;50.920;4.628;2023-12-04T00:17:54;2.70;99.90
15131;DHT22;7666;50.920;4.628;2023-12-04T00:20:40;2.70;99.90
15131;DHT22;7666;50.920;4.628;2023-12-04T00:23:25;2.70;99.90
15131;DHT22;7666;50.920;4.628;2023-12-04T00:26:12;2.70;99.90
15131;DHT22;7666;50.920;4.628;2023-12-04T00:28:58;2.70;99.90
15131;DHT22;7666;50.920;4.628;2023-12-04T00:31:44;2.70;99.90
15131;DHT22;7666;50.920;4.628;2023-12-04T00:34:30;2.70;99.90
15131;DHT22;7666;50.920;4.628;2023-12-04T00:37:16;2.70;99.90
15131;DHT22;7666;50.920;4.628;2023-12-04T00:40:02;2.80;99.90
15131;DHT22;7666;50.920;4.628;2023-12-04T00:42:49;2.70;99.90
15131;DHT22;7666;50.920;4.628;2023-12-04T00:45:35;2.70;99.90
15131;DHT22;7666;50.920;4.628;2023-12-04T00:48:22;2.70;99.90
15131;DHT22;7666;50.920;4.628;2023-12-04T00:51:08;2.70;99.90
15131;DHT22;7666;50.920;4.628;2023-12-04T00:53:54;2.70;99.90
15131;DHT22;7666;50.920;4.628;2023-12-04T00:56:40;2.70;99.90
15131;DHT22;7666;50.920;4.628;2023-12-04T00:59:26;2.80;99.90
15131;DHT22;7666;50.920;4.628;2023-12-04T01:02:12;2.70;99.90
15131;DHT22;7666;50.920;4.628;2023-12-04T01:04:58;2.70;99.90
15131;DHT22;7666;50.920;4.628;2023-12-04T01:07:43;2.70;99.90
15131;DHT22;7666;50.920;4.628;2023-12-04T01:10:29;2.70;99.90
15131;DHT22;7666;50.920;4.628;2023-12-04T01:13:16;2.70;99.90
15131;DHT22;7666;50.920;4.628;2023-12-04T01:16:01;2.90;99.90
15131;DHT22;7666;50.920;4.628;2023-12-04T01:18:47;2.80;99.90
15131;DHT22;7666;50.920;4.628;2023-12-04T01:21:34;2.80;99.90
15131;DHT22;7666;50.920;4.628;2023-12-04T01:24:20;2.90;99.90
15131;DHT22;7666;50.920;4.628;2023-12-04T01:27:06;2.80;99.90
15131;DHT22;7666;50.920;4.628;2023-12-04T01:29:52;2.80;99.90
15131;DHT22;7666;50.920;4.628;2023-12-04T01:32:37;2.80;99.90
15131;DHT22;7666;50.920;4.628;2023-12-04T01:35:23;2.80;99.90
15131;DHT22;7666;50.920;4.628;2023-12-04T01:38:09;2.90;99.90
15131;DHT22;7666;50.920;4.628;2023-12-04T01:40:55;2.90;99.90
15131;DHT22;7666;50.920;4.628;2023-12-04T01:43:41;2.90;99.90
15131;DHT22;7666;50.920;4.628;2023-12-04T01:46:27;2.90;99.90
15131;DHT22;7666;50.920;4.628;2023-12-04T01:49:14;2.80;99.90
15131;DHT22;7666;50.920;4.628;2023-12-04T01:52:00;2.80;99.90
15131;DHT22;7666;50.920;4.628;2023-12-04T01:54:46;2.80;99.90
15131;DHT22;7666;50.920;4.628;2023-12-04T01:57:33;2.80;99.90
15131;DHT22;7666;50.920;4.628;2023-12-04T02:00:19;2.70;99.90
15131;DHT22;7666;50.920;4.628;2023-12-04T02:03:08;2.80;99.90
15131;DHT22;7666;50.920;4.628;2023-12-04T02:05:55;2.80;99.90
15131;DHT22;7666;50.920;4.628;2023-12-04T02:08:42;2.80;99.90
15131;DHT22;7666;50.920;4.628;2023-12-04T02:11:29;2.80;99.90
15131;DHT22;7666;50.920;4.628;2023-12-04T02:14:15;2.80;99.90
15131;DHT22;7666;50.920;4.628;2023-12-04T02:17:05;2.90;99.90
15131;DHT22;7666;50.920;4.628;2023-12-04T02:19:51;2.90;99.90
15131;DHT22;7666;50.920;4.628;2023-12-04T02:22:38;2.90;99.90
15131;DHT22;7666;50.920;4.628;2023-12-04T02:25:24;3.00;99.90
15131;DHT22;7666;50.920;4.628;2023-12-04T02:28:13;3.00;99.90
15131;DHT22;7666;50.920;4.628;2023-12-04T02:31:01;3.00;99.90
15131;DHT22;7666;50.920;4.628;2023-12-04T02:33:52;3.10;99.90
15131;DHT22;7666;50.920;4.628;2023-12-04T02:36:42;3.00;99.90
15131;DHT22;7666;50.920;4.628;2023-12-04T02:39:28;3.00;99.90
15131;DHT22;7666;50.920;4.628;2023-12-04T02:42:14;3.00;99.90
15131;DHT22;7666;50.920;4.628;2023-12-04T02:45:02;3.00;99.90
15131;DHT22;7666;50.920;4.628;2023-12-04T02:47:49;3.00;99.90
15131;DHT22;7666;50.920;4.628;2023-12-04T02:50:34;3.00;99.90
15131;DHT22;7666;50.920;4.628;2023-12-04T02:53:20;3.00;99.90
15131;DHT22;7666;50.920;4.628;2023-12-04T02:56:07;3.00;99.90
15131;DHT22;7666;50.920;4.628;2023-12-04T02:58:53;3.00;99.90
15131;DHT22;7666;50.920;4.628;2023-12-04T03:01:39;3.00;99.90
15131;DHT22;7666;50.920;4.628;2023-12-04T03:04:26;2.90;99.90
15131;DHT22;7666;50.920;4.628;2023-12-04T03:07:12;3.00;99.90
15131;DHT22;7666;50.920;4.628;2023-12-04T03:09:58;3.00;99.90
15131;DHT22;7666;50.920;4.628;2023-12-04T03:12:44;3.00;99.90
15131;DHT22;7666;50.920;4.628;2023-12-04T03:15:29;3.00;99.90
15131;DHT22;7666;50.920;4.628;2023-12-04T03:18:15;2.90;99.90
15131;DHT22;7666;50.920;4.628;2023-12-04T03:21:02;2.90;99.90
15131;DHT22;7666;50.920;4.628;2023-12-04T03:23:48;3.00;99.90
15131;DHT22;7666;50.920;4.628;2023-12-04T03:26:34;3.00;99.90
15131;DHT22;7666;50.920;4.628;2023-12-04T03:29:20;3.00;99.90
15131;DHT22;7666;50.920;4.628;2023-12-04T03:32:06;3.00;99.90
15131;DHT22;7666;50.920;4.628;2023-12-04T03:34:52;3.00;99.90
15131;DHT22;7666;50.920;4.628;2023-12-04T03:37:38;3.00;99.90
15131;DHT22;7666;50.920;4.628;2023-12-04T03:40:24;3.10;99.90
15131;DHT22;7666;50.920;4.628;2023-12-04T03:43:10;3.10;99.90
15131;DHT22;7666;50.920;4.628;2023-12-04T03:45:56;3.10;99.90
15131;DHT22;7666;50.920;4.628;2023-12-04T03:48:42;3.00;99.90
15131;DHT22;7666;50.920;4.628;2023-12-04T03:51:28;3.00;99.90
15131;DHT22;7666;50.920;4.628;2023-12-04T03:54:14;3.00;99.90
15131;DHT22;7666;50.920;4.628;2023-12-04T03:57:00;3.00;99.90
15131;DHT22;7666;50.920;4.628;2023-12-04T03:59:46;3.00;99.90
15131;DHT22;7666;50.920;4.628;2023-12-04T04:02:32;3.00;99.90
15131;DHT22;7666;50.920;4.628;2023-12-04T04:05:18;3.00;99.90
15131;DHT22;7666;50.920;4.628;2023-12-04T04:08:04;3.20;99.90
15131;DHT22;7666;50.920;4.628;2023-12-04T04:10:52;3.10;99.90
15131;DHT22;7666;50.920;4.628;2023-12-04T04:13:37;3.10;99.90
15131;DHT22;7666;50.920;4.628;2023-12-04T04:16:23;3.20;99.90
15131;DHT22;7666;50.920;4.628;2023-12-04T04:19:09;3.20;99.90
15131;DHT22;7666;50.920;4.628;2023-12-04T04:21:55;3.20;99.90
15131;DHT22;7666;50.920;4.628;2023-12-04T04:24:41;3.20;99.90
15131;DHT22;7666;50.920;4.628;2023-12-04T04:27:27;3.20;99.90
15131;DHT22;7666;50.920;4.628;2023-12-04T04:30:13;3.20;99.90
15131;DHT22;7666;50.920;4.628;2023-12-04T04:32:59;3.30;99.90
15131;DHT22;7666;50.920;4.628;2023-12-04T04:35:45;3.30;99.90
15131;DHT22;7666;50.920;4.628;2023-12-04T04:38:31;3.30;99.90
15131;DHT22;7666;50.920;4.628;2023-12-04T04:41:17;3.30;99.90
15131;DHT22;7666;50.920;4.628;2023-12-04T04:44:03;3.30;99.90
15131;DHT22;7666;50.920;4.628;2023-12-04T04:46:49;3.30;99.90
15131;DHT22;7666;50.920;4.628;2023-12-04T04:49:35;3.30;99.90
15131;DHT22;7666;50.920;4.628;2023-12-04T04:52:21;3.20;99.90
15131;DHT22;7666;50.920;4.628;2023-12-04T04:55:08;3.20;99.90
15131;DHT22;7666;50.920;4.628;2023-12-04T04:57:53;3.20;99.90
15131;DHT22;7666;50.920;4.628;2023-12-04T05:00:40;3.30;99.90
15131;DHT22;7666;50.920;4.628;2023-12-04T05:03:26;3.30;99.90
15131;DHT22;7666;50.920;4.628;2023-12-04T05:06:12;3.30;99.90
15131;DHT22;7666;50.920;4.628;2023-12-04T05:08:58;3.30;99.90
15131;DHT22;7666;50.920;4.628;2023-12-04T05:11:44;3.30;99.90
15131;DHT22;7666;50.920;4.628;2023-12-04T05:14:30;3.30;99.90
15131;DHT22;7666;50.920;4.628;2023-12-04T05:17:16;3.30;99.90
15131;DHT22;7666;50.920;4.628;2023-12-04T05:20:02;3.30;99.90
15131;DHT22;7666;50.920;4.628;2023-12-04T05:22:49;3.40;99.90
15131;DHT22;7666;50.920;4.628;2023-12-04T05:25:35;3.40;99.90
15131;DHT22;7666;50.920;4.628;2023-12-04T05:28:21;3.40;99.90
15131;DHT22;7666;50.920;4.628;2023-12-04T05:31:07;3.40;99.90
15131;DHT22;7666;50.920;4.628;2023-12-04T05:33:53;3.40;99.90
15131;DHT22;7666;50.920;4.628;2023-12-04T05:36:39;3.40;99.90
15131;DHT22;7666;50.920;4.628;2023-12-04T05:39:25;3.40;99.90
15131;DHT22;7666;50.920;4.628;2023-12-04T05:42:11;3.40;99.90
15131;DHT22;7666;50.920;4.628;2023-12-04T05:44:57;3.40;99.90
15131;DHT22;7666;50.920;4.628;2023-12-04T05:47:43;3.40;99.90
15131;DHT22;7666;50.920;4.628;2023-12-04T05:50:29;3.30;99.90
15131;DHT22;7666;50.920;4.628;2023-12-04T05:53:16;3.30;99.90
15131;DHT22;7666;50.920;4.628;2023-12-04T05:56:04;3.40;99.90
15131;DHT22;7666;50.920;4.628;2023-12-04T05:58:50;3.30;99.90
15131;DHT22;7666;50.920;4.628;2023-12-04T06:01:36;3.40;99.90
15131;DHT22;7666;50.920;4.628;2023-12-04T06:04:22;3.40;99.90
15131;DHT22;7666;50.920;4.628;2023-12-04T06:07:09;3.40;99.90
15131;DHT22;7666;50.920;4.628;2023-12-04T06:09:55;3.40;99.90
15131;DHT22;7666;50.920;4.628;2023-12-04T06:12:41;3.50;99.90
15131;DHT22;7666;50.920;4.628;2023-12-04T06:15:26;3.50;99.90
15131;DHT22;7666;50.920;4.628;2023-12-04T06:18:12;3.50;99.90
15131;DHT22;7666;50.920;4.628;2023-12-04T06:20:59;3.60;99.90
15131;DHT22;7666;50.920;4.628;2023-12-04T06:23:45;3.60;99.90
15131;DHT22;7666;50.920;4.628;2023-12-04T06:26:31;3.60;99.90
15131;DHT22;7666;50.920;4.628;2023-12-04T06:29:18;3.50;99.90
15131;DHT22;7666;50.920;4.628;2023-12-04T06:32:05;3.50;99.90
15131;DHT22;7666;50.920;4.628;2023-12-04T06:34:51;3.50;99.90
15131;DHT22;7666;50.920;4.628;2023-12-04T06:37:41;3.50;99.90
15131;DHT22;7666;50.920;4.628;2023-12-04T06:40:29;3.50;99.90
15131;DHT22;7666;50.920;4.628;2023-12-04T06:43:15;3.50;99.90
15131;DHT22;7666;50.920;4.628;2023-12-04T06:46:04;3.50;99.90
15131;DHT22;7666;50.920;4.628;2023-12-04T06:48:53;3.50;99.90
15131;DHT22;7666;50.920;4.628;2023-12-04T06:51:40;3.50;99.90
15131;DHT22;7666;50.920;4.628;2023-12-04T06:54:26;3.50;99.90
15131;DHT22;7666;50.920;4.628;2023-12-04T06:57:12;3.60;99.90
15131;DHT22;7666;50.920;4.628;2023-12-04T07:00:00;3.60;99.90
15131;DHT22;7666;50.920;4.628;2023-12-04T07:02:46;3.60;99.90
15131;DHT22;7666;50.920;4.628;2023-12-04T07:05:32;3.60;99.90
15131;DHT22;7666;50.920;4.628;2023-12-04T07:08:18;3.60;99.90
15131;DHT22;7666;50.920;4.628;2023-12-04T07:11:04;3.60;99.90
15131;DHT22;7666;50.920;4.628;2023-12-04T07:13:50;3.60;99.90
15131;DHT22;7666;50.920;4.628;2023-12-04T07:16:42;3.60;99.90
15131;DHT22;7666;50.920;4.628;2023-12-04T07:19:28;3.60;99.90
15131;DHT22;7666;50.920;4.628;2023-12-04T07:22:14;3.60;99.90
15131;DHT22;7666;50.920;4.628;2023-12-04T07:25:00;3.60;99.90
15131;DHT22;7666;50.920;4.628;2023-12-04T07:27:46;3.60;99.90
15131;DHT22;7666;50.920;4.628;2023-12-04T07:30:32;3.60;99.90
15131;DHT22;7666;50.920;4.628;2023-12-04T07:33:18;3.60;99.90
15131;DHT22;7666;50.920;4.628;2023-12-04T07:36:04;3.60;99.90
15131;DHT22;7666;50.920;4.628;2023-12-04T07:38:50;3.50;99.90
15131;DHT22;7666;50.920;4.628;2023-12-04T07:41:37;3.50;99.90
15131;DHT22;7666;50.920;4.628;2023-12-04T07:44:23;3.60;99.90
15131;DHT22;7666;50.920;4.628;2023-12-04T07:47:09;3.60;99.90
15131;DHT22;7666;50.920;4.628;2023-12-04T07:49:55;3.60;99.90
15131;DHT22;7666;50.920;4.628;2023-12-04T07:52:41;3.60;99.90
15131;DHT22;7666;50.920;4.628;2023-12-04T07:55:27;3.60;99.90
15131;DHT22;7666;50.920;4.628;2023-12-04T07:58:13;3.60;99.90
15131;DHT22;7666;50.920;4.628;2023-12-04T08:00:59;3.60;99.90
15131;DHT22;7666;50.920;4.628;2023-12-04T08:03:45;3.60;99.90
15131;DHT22;7666;50.920;4.628;2023-12-04T08:06:31;3.70;99.90
15131;DHT22;7666;50.920;4.628;2023-12-04T08:09:17;3.60;99.90
15131;DHT22;7666;50.920;4.628;2023-12-04T08:12:04;3.70;99.90
15131;DHT22;7666;50.920;4.628;2023-12-04T08:14:49;3.70;99.90
15131;DHT22;7666;50.920;4.628;2023-12-04T08:17:36;3.70;99.90
15131;DHT22;7666;50.920;4.628;2023-12-04T08:20:22;3.60;99.90
15131;DHT22;7666;50.920;4.628;2023-12-04T08:23:09;3.70;99.90
15131;DHT22;7666;50.920;4.628;2023-12-04T08:25:55;3.70;99.90
15131;DHT22;7666;50.920;4.628;2023-12-04T08:28:41;3.70;99.90
15131;DHT22;7666;50.920;4.628;2023-12-04T08:31:27;3.80;99.90
15131;DHT22;7666;50.920;4.628;2023-12-04T08:34:13;3.80;99.90
15131;DHT22;7666;50.920;4.628;2023-12-04T08:36:59;3.80;99.90
15131;DHT22;7666;50.920;4.628;2023-12-04T08:39:45;3.80;99.90
15131;DHT22;7666;50.920;4.628;2023-12-04T08:42:31;3.90;99.90
15131;DHT22;7666;50.920;4.628;2023-12-04T08:45:17;3.90;99.90
15131;DHT22;7666;50.920;4.628;2023-12-04T08:48:03;3.90;99.90
15131;DHT22;7666;50.920;4.628;2023-12-04T08:50:50;3.90;99.90
15131;DHT22;7666;50.920;4.628;2023-12-04T08:53:36;3.90;99.90
15131;DHT22;7666;50.920;4.628;2023-12-04T08:56:22;3.90;99.90
15131;DHT22;7666;50.920;4.628;2023-12-04T08:59:08;3.90;99.90
15131;DHT22;7666;50.920;4.628;2023-12-04T09:01:54;3.90;99.90
15131;DHT22;7666;50.920;4.628;2023-12-04T09:04:40;3.90;99.90
15131;DHT22;7666;50.920;4.628;2023-12-04T09:07:26;3.90;99.90
15131;DHT22;7666;50.920;4.628;2023-12-04T09:10:12;3.90;99.90
15131;DHT22;7666;50.920;4.628;2023-12-04T09:12:58;3.90;99.90
15131;DHT22;7666;50.920;4.628;2023-12-04T09:15:44;3.90;99.90
15131;DHT22;7666;50.920;4.628;2023-12-04T09:18:30;3.90;99.90
15131;DHT22;7666;50.920;4.628;2023-12-04T09:21:16;3.90;99.90
15131;DHT22;7666;50.920;4.628;2023-12-04T09:24:02;3.80;99.90
15131;DHT22;7666;50.920;4.628;2023-12-04T09:26:49;3.80;99.90
15131;DHT22;7666;50.920;4.628;2023-12-04T09:29:34;3.80;99.90
15131;DHT22;7666;50.920;4.628;2023-12-04T09:32:20;3.80;99.90
15131;DHT22;7666;50.920;4.628;2023-12-04T09:35:06;3.80;99.90
15131;DHT22;7666;50.920;4.628;2023-12-04T09:37:53;3.80;99.90
15131;DHT22;7666;50.920;4.628;2023-12-04T09:40:39;3.70;99.90
15131;DHT22;7666;50.920;4.628;2023-12-04T09:43:26;3.80;99.90
15131;DHT22;7666;50.920;4.628;2023-12-04T09:46:12;3.80;99.90
15131;DHT22;7666;50.920;4.628;2023-12-04T09:48:59;3.80;99.90
15131;DHT22;7666;50.920;4.628;2023-12-04T09:51:46;3.80;99.90
15131;DHT22;7666;50.920;4.628;2023-12-04T09:54:35;3.80;99.90
15131;DHT22;7666;50.920;4.628;2023-12-04T09:57:23;3.80;99.90
15131;DHT22;7666;50.920;4.628;2023-12-04T10:00:10;3.70;99.90
15131;DHT22;7666;50.920;4.628;2023-12-04T10:02:57;3.70;99.90
15131;DHT22;7666;50.920;4.628;2023-12-04T10:05:44;3.70;99.90
15131;DHT22;7666;50.920;4.628;2023-12-04T10:08:33;3.60;99.90
15131;DHT22;7666;50.920;4.628;2023-12-04T10:11:19;3.60;99.90
15131;DHT22;7666;50.920;4.628;2023-12-04T10:14:18;3.60;99.90
15131;DHT22;7666;50.920;4.628;2023-12-04T10:17:16;3.60;99.90
15131;DHT22;7666;50.920;4.628;2023-12-04T10:20:14;3.60;99.90
15131;DHT22;7666;50.920;4.628;2023-12-04T10:23:03;3.60;99.90
15131;DHT22;7666;50.920;4.628;2023-12-04T10:25:49;3.50;99.90
15131;DHT22;7666;50.920;4.628;2023-12-04T10:28:36;3.50;99.90
15131;DHT22;7666;50.920;4.628;2023-12-04T10:31:23;3.50;99.90
15131;DHT22;7666;50.920;4.628;2023-12-04T10:34:09;3.50;99.90
15131;DHT22;7666;50.920;4.628;2023-12-04T10:36:55;3.40;99.90
15131;DHT22;7666;50.920;4.628;2023-12-04T10:39:51;3.40;99.90
15131;DHT22;7666;50.920;4.628;2023-12-04T10:42:37;3.40;99.90
15131;DHT22;7666;50.920;4.628;2023-12-04T10:45:23;3.40;99.90
15131;DHT22;7666;50.920;4.628;2023-12-04T10:48:11;3.30;99.90
15131;DHT22;7666;50.920;4.628;2023-12-04T10:50:57;3.40;99.90
15131;DHT22;7666;50.920;4.628;2023-12-04T10:53:44;3.50;99.90
15131;DHT22;7666;50.920;4.628;2023-12-04T10:56:35;3.30;99.90
15131;DHT22;7666;50.920;4.628;2023-12-04T10:59:27;3.30;99.90
15131;DHT22;7666;50.920;4.628;2023-12-04T11:02:21;3.30;99.90
15131;DHT22;7666;50.920;4.628;2023-12-04T11:05:08;3.30;99.90
15131;DHT22;7666;50.920;4.628;2023-12-04T11:08:02;3.20;99.90
15131;DHT22;7666;50.920;4.628;2023-12-04T11:11:03;3.20;99.90
15131;DHT22;7666;50.920;4.628;2023-12-04T11:13:54;3.10;99.90
15131;DHT22;7666;50.920;4.628;2023-12-04T11:16:47;3.00;99.90
15131;DHT22;7666;50.920;4.628;2023-12-04T11:22:29;3.00;99.90
15131;DHT22;7666;50.920;4.628;2023-12-04T11:25:15;2.90;99.90
15131;DHT22;7666;50.920;4.628;2023-12-04T11:28:02;3.00;99.90
15131;DHT22;7666;50.920;4.628;2023-12-04T11:30:49;3.10;99.90
15131;DHT22;7666;50.920;4.628;2023-12-04T11:33:38;3.10;99.90
15131;DHT22;7666;50.920;4.628;2023-12-04T11:36:25;3.10;99.90
15131;DHT22;7666;50.920;4.628;2023-12-04T11:39:11;3.20;99.90
15131;DHT22;7666;50.920;4.628;2023-12-04T11:41:58;3.20;99.90
15131;DHT22;7666;50.920;4.628;2023-12-04T11:44:48;3.20;99.90
15131;DHT22;7666;50.920;4.628;2023-12-04T11:48:04;3.20;99.90
15131;DHT22;7666;50.920;4.628;2023-12-04T11:50:50;3.10;99.90
15131;DHT22;7666;50.920;4.628;2023-12-04T11:53:40;3.00;99.90
15131;DHT22;7666;50.920;4.628;2023-12-04T11:56:26;3.10;99.90
15131;DHT22;7666;50.920;4.628;2023-12-04T11:59:12;3.10;99.90
15131;DHT22;7666;50.920;4.628;2023-12-04T12:01:58;3.10;99.90
15131;DHT22;7666;50.920;4.628;2023-12-04T12:04:44;3.10;99.90
15131;DHT22;7666;50.920;4.628;2023-12-04T12:07:33;3.10;99.90
15131;DHT22;7666;50.920;4.628;2023-12-04T12:10:19;3.10;99.90
15131;DHT22;7666;50.920;4.628;2023-12-04T12:13:05;3.10;99.90
15131;DHT22;7666;50.920;4.628;2023-12-04T12:15:52;3.20;99.90
15131;DHT22;7666;50.920;4.628;2023-12-04T12:18:40;3.20;99.90
15131;DHT22;7666;50.920;4.628;2023-12-04T12:21:27;3.20;99.90
15131;DHT22;7666;50.920;4.628;2023-12-04T12:24:13;3.30;99.90
15131;DHT22;7666;50.920;4.628;2023-12-04T12:26:59;3.30;99.90
15131;DHT22;7666;50.920;4.628;2023-12-04T12:29:46;3.30;99.90
15131;DHT22;7666;50.920;4.628;2023-12-04T12:32:33;3.30;99.90
15131;DHT22;7666;50.920;4.628;2023-12-04T12:35:19;3.40;99.90
15131;DHT22;7666;50.920;4.628;2023-12-04T12:38:05;3.40;99.90
15131;DHT22;7666;50.920;4.628;2023-12-04T12:40:51;3.40;99.90
15131;DHT22;7666;50.920;4.628;2023-12-04T12:43:37;3.50;99.90
15131;DHT22;7666;50.920;4.628;2023-12-04T12:46:23;3.50;99.90
15131;DHT22;7666;50.920;4.628;2023-12-04T12:49:14;3.60;99.90
15131;DHT22;7666;50.920;4.628;2023-12-04T12:52:00;3.60;99.90
15131;DHT22;7666;50.920;4.628;2023-12-04T12:54:46;3.60;99.90
15131;DHT22;7666;50.920;4.628;2023-12-04T12:57:32;3.70;99.90
15131;DHT22;7666;50.920;4.628;2023-12-04T13:00:18;3.70;99.90
15131;DHT22;7666;50.920;4.628;2023-12-04T13:03:05;3.70;99.90
15131;DHT22;7666;50.920;4.628;2023-12-04T13:05:52;3.70;99.90
15131;DHT22;7666;50.920;4.628;2023-12-04T13:08:38;3.70;99.90
15131;DHT22;7666;50.920;4.628;2023-12-04T13:11:24;3.70;99.90
15131;DHT22;7666;50.920;4.628;2023-12-04T13:14:10;3.70;99.90
15131;DHT22;7666;50.920;4.628;2023-12-04T13:16:56;3.70;99.90
15131;DHT22;7666;50.920;4.628;2023-12-04T13:19:42;3.70;99.90
15131;DHT22;7666;50.920;4.628;2023-12-04T13:22:28;3.70;99.90
15131;DHT22;7666;50.920;4.628;2023-12-04T13:25:14;3.70;99.90
15131;DHT22;7666;50.920;4.628;2023-12-04T13:28:00;3.70;99.90
15131;DHT22;7666;50.920;4.628;2023-12-04T13:30:46;3.70;99.90
15131;DHT22;7666;50.920;4.628;2023-12-04T13:33:32;3.70;99.90
15131;DHT22;7666;50.920;4.628;2023-12-04T13:36:18;3.70;99.90
15131;DHT22;7666;50.920;4.628;2023-12-04T13:39:04;3.80;99.90
15131;DHT22;7666;50.920;4.628;2023-12-04T13:41:50;3.80;99.90
15131;DHT22;7666;50.920;4.628;2023-12-04T13:44:54;3.80;99.90
15131;DHT22;7666;50.920;4.628;2023-12-04T13:47:40;3.80;99.90
15131;DHT22;7666;50.920;4.628;2023-12-04T13:50:26;3.80;99.90
15131;DHT22;7666;50.920;4.628;2023-12-04T13:53:12;3.80;99.90
15131;DHT22;7666;50.920;4.628;2023-12-04T13:56:00;3.90;99.90
15131;DHT22;7666;50.920;4.628;2023-12-04T13:58:47;3.90;99.90
15131;DHT22;7666;50.920;4.628;2023-12-04T14:01:35;3.90;99.90
15131;DHT22;7666;50.920;4.628;2023-12-04T14:04:27;3.90;99.90
15131;DHT22;7666;50.920;4.628;2023-12-04T14:07:13;3.90;99.90
15131;DHT22;7666;50.920;4.628;2023-12-04T14:09:59;4.00;99.90
15131;DHT22;7666;50.920;4.628;2023-12-04T14:12:45;4.00;99.90
15131;DHT22;7666;50.920;4.628;2023-12-04T14:15:33;4.00;99.90
15131;DHT22;7666;50.920;4.628;2023-12-04T14:18:18;4.00;99.90
15131;DHT22;7666;50.920;4.628;2023-12-04T14:21:05;4.00;99.90
15131;DHT22;7666;50.920;4.628;2023-12-04T14:23:51;4.00;99.90
15131;DHT22;7666;50.920;4.628;2023-12-04T14:26:37;4.00;99.90
15131;DHT22;7666;50.920;4.628;2023-12-04T14:29:23;4.00;99.90
15131;DHT22;7666;50.920;4.628;2023-12-04T14:32:09;4.00;99.90
15131;DHT22;7666;50.920;4.628;2023-12-04T14:34:55;4.00;99.90
15131;DHT22;7666;50.920;4.628;2023-12-04T14:37:41;4.00;99.90
15131;DHT22;7666;50.920;4.628;2023-12-04T14:40:27;4.00;99.90
15131;DHT22;7666;50.920;4.628;2023-12-04T14:43:13;4.00;99.90
15131;DHT22;7666;50.920;4.628;2023-12-04T14:45:59;3.90;99.90
15131;DHT22;7666;50.920;4.628;2023-12-04T14:48:45;3.90;99.90
15131;DHT22;7666;50.920;4.628;2023-12-04T14:51:31;3.90;99.90
15131;DHT22;7666;50.920;4.628;2023-12-04T14:54:17;3.90;99.90
15131;DHT22;7666;50.920;4.628;2023-12-04T14:57:22;3.90;99.90
15131;DHT22;7666;50.920;4.628;2023-12-04T15:00:26;3.90;99.90
15131;DHT22;7666;50.920;4.628;2023-12-04T15:03:31;3.90;99.90
15131;DHT22;7666;50.920;4.628;2023-12-04T15:06:36;3.90;99.90
15131;DHT22;7666;50.920;4.628;2023-12-04T15:09:41;3.90;99.90
15131;DHT22;7666;50.920;4.628;2023-12-04T15:12:46;3.90;99.90
15131;DHT22;7666;50.920;4.628;2023-12-04T15:15:50;3.90;99.90
15131;DHT22;7666;50.920;4.628;2023-12-04T15:19:05;4.00;99.90
15131;DHT22;7666;50.920;4.628;2023-12-04T15:22:11;4.00;99.90
15131;DHT22;7666;50.920;4.628;2023-12-04T15:24:57;4.00;99.90
15131;DHT22;7666;50.920;4.628;2023-12-04T15:27:44;4.00;99.90
15131;DHT22;7666;50.920;4.628;2023-12-04T15:30:30;4.10;99.90
15131;DHT22;7666;50.920;4.628;2023-12-04T15:33:16;4.10;99.90
15131;DHT22;7666;50.920;4.628;2023-12-04T15:36:02;4.10;99.90
15131;DHT22;7666;50.920;4.628;2023-12-04T15:38:49;4.10;99.90
15131;DHT22;7666;50.920;4.628;2023-12-04T15:41:35;4.10;99.90
15131;DHT22;7666;50.920;4.628;2023-12-04T15:44:22;4.20;99.90
15131;DHT22;7666;50.920;4.628;2023-12-04T15:47:08;4.20;99.90
15131;DHT22;7666;50.920;4.628;2023-12-04T15:49:55;4.20;99.90
15131;DHT22;7666;50.920;4.628;2023-12-04T15:52:41;4.10;99.90
15131;DHT22;7666;50.920;4.628;2023-12-04T15:55:28;4.10;99.90
15131;DHT22;7666;50.920;4.628;2023-12-04T15:58:15;4.10;99.90
15131;DHT22;7666;50.920;4.628;2023-12-04T16:01:02;4.10;99.90
15131;DHT22;7666;50.920;4.628;2023-12-04T16:03:50;4.10;99.90
15131;DHT22;7666;50.920;4.628;2023-12-04T16:06:36;4.10;99.90
15131;DHT22;7666;50.920;4.628;2023-12-04T16:09:22;4.10;99.90
15131;DHT22;7666;50.920;4.628;2023-12-04T16:12:09;4.10;99.90
15131;DHT22;7666;50.920;4.628;2023-12-04T16:14:55;4.10;99.90
15131;DHT22;7666;50.920;4.628;2023-12-04T16:17:42;4.10;99.90
15131;DHT22;7666;50.920;4.628;2023-12-04T16:20:27;4.10;99.90
15131;DHT22;7666;50.920;4.628;2023-12-04T16:23:13;4.10;99.90
15131;DHT22;7666;50.920;4.628;2023-12-04T16:26:00;4.10;99.90
15131;DHT22;7666;50.920;4.628;2023-12-04T16:28:46;4.10;99.90
15131;DHT22;7666;50.920;4.628;2023-12-04T16:31:32;4.10;99.90
15131;DHT22;7666;50.920;4.628;2023-12-04T16:34:18;4.10;99.90
15131;DHT22;7666;50.920;4.628;2023-12-04T16:37:04;4.10;99.90
15131;DHT22;7666;50.920;4.628;2023-12-04T16:39:50;4.20;99.90
15131;DHT22;7666;50.920;4.628;2023-12-04T16:42:37;4.10;99.90
15131;DHT22;7666;50.920;4.628;2023-12-04T16:45:23;4.20;99.90
15131;DHT22;7666;50.920;4.628;2023-12-04T16:48:09;4.20;99.90
15131;DHT22;7666;50.920;4.628;2023-12-04T16:50:56;4.20;99.90
15131;DHT22;7666;50.920;4.628;2023-12-04T16:53:42;4.20;99.90
15131;DHT22;7666;50.920;4.628;2023-12-04T16:56:28;4.20;99.90
15131;DHT22;7666;50.920;4.628;2023-12-04T16:59:16;4.20;99.90
15131;DHT22;7666;50.920;4.628;2023-12-04T17:02:02;4.20;99.90
15131;DHT22;7666;50.920;4.628;2023-12-04T17:04:48;4.20;99.90
15131;DHT22;7666;50.920;4.628;2023-12-04T17:07:34;4.30;99.90
15131;DHT22;7666;50.920;4.628;2023-12-04T17:10:20;4.30;99.90
15131;DHT22;7666;50.920;4.628;2023-12-04T17:13:08;4.30;99.90
15131;DHT22;7666;50.920;4.628;2023-12-04T17:15:54;4.30;99.90
15131;DHT22;7666;50.920;4.628;2023-12-04T17:18:40;4.30;99.90
15131;DHT22;7666;50.920;4.628;2023-12-04T17:21:26;4.30;99.90
15131;DHT22;7666;50.920;4.628;2023-12-04T17:24:12;4.30;99.90
15131;DHT22;7666;50.920;4.628;2023-12-04T17:26:58;4.30;99.90
15131;DHT22;7666;50.920;4.628;2023-12-04T17:29:44;4.40;99.90
15131;DHT22;7666;50.920;4.628;2023-12-04T17:32:30;4.40;99.90
15131;DHT22;7666;50.920;4.628;2023-12-04T17:35:16;4.40;99.90
15131;DHT22;7666;50.920;4.628;2023-12-04T17:38:02;4.40;99.90
15131;DHT22;7666;50.920;4.628;2023-12-04T17:40:49;4.40;99.90
15131;DHT22;7666;50.920;4.628;2023-12-04T17:43:35;4.50;99.90
15131;DHT22;7666;50.920;4.628;2023-12-04T17:46:22;4.50;99.90
15131;DHT22;7666;50.920;4.628;2023-12-04T17:49:08;4.50;99.90
15131;DHT22;7666;50.920;4.628;2023-12-04T17:51:55;4.50;99.90
15131;DHT22;7666;50.920;4.628;2023-12-04T17:54:41;4.50;99.90
15131;DHT22;7666;50.920;4.628;2023-12-04T17:57:27;4.50;99.90
15131;DHT22;7666;50.920;4.628;2023-12-04T18:00:13;4.50;99.90
15131;DHT22;7666;50.920;4.628;2023-12-04T18:03:00;4.50;99.90
15131;DHT22;7666;50.920;4.628;2023-12-04T18:05:46;4.60;99.90
15131;DHT22;7666;50.920;4.628;2023-12-04T18:08:32;4.60;99.90
15131;DHT22;7666;50.920;4.628;2023-12-04T18:11:19;4.60;99.90
15131;DHT22;7666;50.920;4.628;2023-12-04T18:14:05;4.60;99.90